Sarh, Chad

12:55 AM WAT on July 23, 2014 (GMT +0100)
Sarh (FTTA) Elev 1198 ft | 9.14 °N, 18.37 °E | Change Station

Current weather conditions updated 1 hour ago

Clear
Clear
77 °F
Feels Like 77 °F
N
0
Wind Variable Wind from North

Today is forecast to be nearly the same temperature as yesterday. Showers and thunderstorms.

Today
High -- | Low -- °F
--% Chance of Precip.
Yesterday
High -- | Low -- °F
Precip. -- in
5:35 AM 6:10 PM
Waning Crescent, 14% visible
Pressure 30.01 in
Visibility -9999.0 miles
Clouds
Dew Point 73 °F
Humidity 89%
Rainfall 0.00 in
Snow Depth Not available.
UV Not available.
Pollen Not available.
Air Quality Not available.
Flu Activity Not available.
METAR FTTA 222200Z 00000KT CAVOK 25/23 Q1016

More Conditions Fewer Conditions

Pressure 30.01 in
Visibility -9999.0 miles
Clouds
Dew Point 73 °F
Humidity 89%
Rainfall 0.00 in
Snow Depth Not available.
UV Not available.
Pollen Not available.
Air Quality Not available.
Flu Activity Not available.
METAR FTTA 222200Z 00000KT CAVOK 25/23 Q1016

More Conditions Fewer Conditions

10-Day Weather Forecast

Almanac

Astronomy

Jul. 23, 2014 Rise Set
Actual Time 5:35 AM WAT 6:10 PM WAT
Civil Twilight 5:13 AM WAT 6:32 PM WAT
Nautical Twilight 4:47 AM WAT 6:58 PM WAT
Astronomical Twilight 4:20 AM WAT 7:25 PM WAT
Moon 2:36 AM WAT (7/23) 3:26 PM WAT (7/23)
Length of Visible Light 13h 18m
Length of Day
12h 34m
Tomorrow will be 0m 19s shorter.
Waning Crescent, 14% of the Moon is Illuminated
Jul 22
Waning Crescent
Jul 26
New
Aug 3
First Quarter
Aug 10
Full
Aug 17
Last Quarter

Yesterday's Extremes

Country Highs Country Lows

Community

WunderPhotos

Upload Photos

1,736,391 photos uploaded!

Nearby

Snow Depth

Not available.

Earthquake Activity

City Distance Mag. Time & Date
No recent earthquake activity has been reported nearby.
Minimum magnitude displayed is 2.5.

Coastal Water Temperatures

Place Temperature
No Stations Reporting

Nearby Weather Stations

There are no personal weather stations in this area.